sensor_id;sensor_type;location;lat;lon;timestamp;P1;durP1;ratioP1;P2;durP2;ratioP2
66118;SDS011;52912;48.564;9.302;2022-09-01T00:00:39;10.93;;;7.80;;
66118;SDS011;52912;48.564;9.302;2022-09-01T00:05:33;14.60;;;9.00;;
66118;SDS011;52912;48.564;9.302;2022-09-01T00:07:58;14.18;;;10.98;;
66118;SDS011;52912;48.564;9.302;2022-09-01T00:10:24;16.15;;;10.43;;
66118;SDS011;52912;48.564;9.302;2022-09-01T00:12:51;12.60;;;9.73;;
66118;SDS011;52912;48.564;9.302;2022-09-01T00:15:16;15.48;;;8.57;;
66118;SDS011;52912;48.564;9.302;2022-09-01T00:17:42;11.98;;;7.57;;
66118;SDS011;52912;48.564;9.302;2022-09-01T00:20:08;11.35;;;7.53;;
66118;SDS011;52912;48.564;9.302;2022-09-01T00:22:34;12.50;;;7.85;;
66118;SDS011;52912;48.564;9.302;2022-09-01T00:24:59;14.82;;;7.80;;
66118;SDS011;52912;48.564;9.302;2022-09-01T00:27:25;14.93;;;7.78;;
66118;SDS011;52912;48.564;9.302;2022-09-01T00:29:52;12.68;;;7.55;;
66118;SDS011;52912;48.564;9.302;2022-09-01T00:32:17;9.90;;;7.50;;
66118;SDS011;52912;48.564;9.302;2022-09-01T00:34:42;14.18;;;7.28;;
66118;SDS011;52912;48.564;9.302;2022-09-01T00:37:08;15.38;;;7.38;;
66118;SDS011;52912;48.564;9.302;2022-09-01T00:39:33;9.38;;;7.30;;
66118;SDS011;52912;48.564;9.302;2022-09-01T00:41:59;15.77;;;8.45;;
66118;SDS011;52912;48.564;9.302;2022-09-01T00:44:25;10.10;;;7.38;;
66118;SDS011;52912;48.564;9.302;2022-09-01T00:46:53;11.75;;;8.10;;
66118;SDS011;52912;48.564;9.302;2022-09-01T00:49:20;10.77;;;8.45;;
66118;SDS011;52912;48.564;9.302;2022-09-01T00:51:52;12.68;;;9.60;;
66118;SDS011;52912;48.564;9.302;2022-09-01T00:54:20;14.50;;;9.05;;
66118;SDS011;52912;48.564;9.302;2022-09-01T00:56:47;13.50;;;9.63;;
66118;SDS011;52912;48.564;9.302;2022-09-01T00:59:13;18.77;;;10.60;;
66118;SDS011;52912;48.564;9.302;2022-09-01T01:01:41;12.27;;;10.15;;
66118;SDS011;52912;48.564;9.302;2022-09-01T01:04:09;14.55;;;10.25;;
66118;SDS011;52912;48.564;9.302;2022-09-01T01:06:34;13.93;;;10.85;;
66118;SDS011;52912;48.564;9.302;2022-09-01T01:09:00;15.15;;;11.82;;
66118;SDS011;52912;48.564;9.302;2022-09-01T01:11:26;13.73;;;10.75;;
66118;SDS011;52912;48.564;9.302;2022-09-01T01:13:55;17.83;;;10.98;;
66118;SDS011;52912;48.564;9.302;2022-09-01T01:16:23;15.13;;;11.13;;
66118;SDS011;52912;48.564;9.302;2022-09-01T01:18:50;13.63;;;10.20;;
66118;SDS011;52912;48.564;9.302;2022-09-01T01:21:19;16.77;;;11.07;;
66118;SDS011;52912;48.564;9.302;2022-09-01T01:23:49;16.75;;;11.30;;
66118;SDS011;52912;48.564;9.302;2022-09-01T01:26:22;15.93;;;11.77;;
66118;SDS011;52912;48.564;9.302;2022-09-01T01:28:48;15.45;;;10.70;;
66118;SDS011;52912;48.564;9.302;2022-09-01T01:31:15;15.18;;;9.48;;
66118;SDS011;52912;48.564;9.302;2022-09-01T01:33:44;15.70;;;9.68;;
66118;SDS011;52912;48.564;9.302;2022-09-01T01:36:13;14.05;;;9.38;;
66118;SDS011;52912;48.564;9.302;2022-09-01T01:38:40;14.18;;;9.88;;
66118;SDS011;52912;48.564;9.302;2022-09-01T01:41:08;14.55;;;10.05;;
66118;SDS011;52912;48.564;9.302;2022-09-01T01:43:35;13.73;;;10.05;;
66118;SDS011;52912;48.564;9.302;2022-09-01T01:46:03;15.95;;;9.75;;
66118;SDS011;52912;48.564;9.302;2022-09-01T01:48:30;16.50;;;10.17;;
66118;SDS011;52912;48.564;9.302;2022-09-01T01:50:55;15.65;;;10.02;;
66118;SDS011;52912;48.564;9.302;2022-09-01T01:53:21;14.20;;;10.07;;
66118;SDS011;52912;48.564;9.302;2022-09-01T01:55:47;14.93;;;10.13;;
66118;SDS011;52912;48.564;9.302;2022-09-01T01:58:13;13.13;;;8.82;;
66118;SDS011;52912;48.564;9.302;2022-09-01T02:00:40;11.60;;;8.60;;
66118;SDS011;52912;48.564;9.302;2022-09-01T02:03:06;14.02;;;8.73;;
66118;SDS011;52912;48.564;9.302;2022-09-01T02:05:32;15.63;;;9.02;;
66118;SDS011;52912;48.564;9.302;2022-09-01T02:08:00;10.30;;;8.30;;
66118;SDS011;52912;48.564;9.302;2022-09-01T02:10:28;12.13;;;8.77;;
66118;SDS011;52912;48.564;9.302;2022-09-01T02:12:55;13.18;;;8.80;;
66118;SDS011;52912;48.564;9.302;2022-09-01T02:15:20;12.60;;;8.48;;
66118;SDS011;52912;48.564;9.302;2022-09-01T02:17:47;12.90;;;8.05;;
66118;SDS011;52912;48.564;9.302;2022-09-01T02:20:12;11.57;;;8.18;;
66118;SDS011;52912;48.564;9.302;2022-09-01T02:22:38;13.48;;;8.23;;
66118;SDS011;52912;48.564;9.302;2022-09-01T02:25:04;17.17;;;7.72;;
66118;SDS011;52912;48.564;9.302;2022-09-01T02:27:30;13.55;;;8.73;;
66118;SDS011;52912;48.564;9.302;2022-09-01T02:29:55;12.25;;;8.25;;
66118;SDS011;52912;48.564;9.302;2022-09-01T02:32:21;12.30;;;9.10;;
66118;SDS011;52912;48.564;9.302;2022-09-01T02:34:48;14.05;;;8.90;;
66118;SDS011;52912;48.564;9.302;2022-09-01T02:37:14;13.30;;;8.85;;
66118;SDS011;52912;48.564;9.302;2022-09-01T02:39:40;11.85;;;8.75;;
66118;SDS011;52912;48.564;9.302;2022-09-01T02:42:05;11.90;;;8.90;;
66118;SDS011;52912;48.564;9.302;2022-09-01T02:44:31;12.23;;;9.02;;
66118;SDS011;52912;48.564;9.302;2022-09-01T02:46:56;15.07;;;8.73;;
66118;SDS011;52912;48.564;9.302;2022-09-01T02:49:22;16.42;;;8.73;;
66118;SDS011;52912;48.564;9.302;2022-09-01T02:51:50;12.45;;;9.32;;
66118;SDS011;52912;48.564;9.302;2022-09-01T02:54:17;14.20;;;10.30;;
66118;SDS011;52912;48.564;9.302;2022-09-01T02:56:43;14.45;;;10.48;;
66118;SDS011;52912;48.564;9.302;2022-09-01T02:59:09;15.80;;;10.93;;
66118;SDS011;52912;48.564;9.302;2022-09-01T03:01:34;13.40;;;10.30;;
66118;SDS011;52912;48.564;9.302;2022-09-01T03:04:01;14.43;;;10.25;;
66118;SDS011;52912;48.564;9.302;2022-09-01T03:06:28;16.95;;;10.43;;
66118;SDS011;52912;48.564;9.302;2022-09-01T03:08:56;18.30;;;10.85;;
66118;SDS011;52912;48.564;9.302;2022-09-01T03:11:22;14.43;;;11.17;;
66118;SDS011;52912;48.564;9.302;2022-09-01T03:13:48;12.95;;;10.52;;
66118;SDS011;52912;48.564;9.302;2022-09-01T03:16:13;15.77;;;9.80;;
66118;SDS011;52912;48.564;9.302;2022-09-01T03:18:39;13.40;;;9.50;;
66118;SDS011;52912;48.564;9.302;2022-09-01T03:21:05;16.02;;;8.95;;
66118;SDS011;52912;48.564;9.302;2022-09-01T03:23:31;11.13;;;8.70;;
66118;SDS011;52912;48.564;9.302;2022-09-01T03:25:58;14.02;;;8.68;;
66118;SDS011;52912;48.564;9.302;2022-09-01T03:28:24;16.15;;;10.02;;
66118;SDS011;52912;48.564;9.302;2022-09-01T03:30:52;14.27;;;10.57;;
66118;SDS011;52912;48.564;9.302;2022-09-01T03:33:19;18.35;;;11.25;;
66118;SDS011;52912;48.564;9.302;2022-09-01T03:35:46;15.32;;;10.18;;
66118;SDS011;52912;48.564;9.302;2022-09-01T03:38:13;12.68;;;9.00;;
66118;SDS011;52912;48.564;9.302;2022-09-01T03:40:39;13.85;;;9.27;;
66118;SDS011;52912;48.564;9.302;2022-09-01T03:43:06;13.35;;;10.10;;
66118;SDS011;52912;48.564;9.302;2022-09-01T03:45:33;12.60;;;9.68;;
66118;SDS011;52912;48.564;9.302;2022-09-01T03:47:58;16.65;;;9.43;;
66118;SDS011;52912;48.564;9.302;2022-09-01T03:50:24;13.55;;;9.38;;
66118;SDS011;52912;48.564;9.302;2022-09-01T03:52:50;13.68;;;8.35;;
66118;SDS011;52912;48.564;9.302;2022-09-01T03:55:20;21.40;;;9.45;;
66118;SDS011;52912;48.564;9.302;2022-09-01T03:57:46;15.93;;;7.97;;
66118;SDS011;52912;48.564;9.302;2022-09-01T04:00:14;14.00;;;8.80;;
66118;SDS011;52912;48.564;9.302;2022-09-01T04:02:39;14.75;;;8.38;;
66118;SDS011;52912;48.564;9.302;2022-09-01T04:05:05;11.57;;;8.13;;
66118;SDS011;52912;48.564;9.302;2022-09-01T04:07:31;11.20;;;7.95;;
66118;SDS011;52912;48.564;9.302;2022-09-01T04:09:56;10.15;;;8.00;;
66118;SDS011;52912;48.564;9.302;2022-09-01T04:12:22;10.60;;;7.93;;
66118;SDS011;52912;48.564;9.302;2022-09-01T04:14:47;10.10;;;7.93;;
66118;SDS011;52912;48.564;9.302;2022-09-01T04:17:14;10.63;;;8.23;;
66118;SDS011;52912;48.564;9.302;2022-09-01T04:19:39;13.50;;;8.20;;
66118;SDS011;52912;48.564;9.302;2022-09-01T04:22:05;11.85;;;8.70;;
66118;SDS011;52912;48.564;9.302;2022-09-01T04:24:31;11.18;;;8.57;;
66118;SDS011;52912;48.564;9.302;2022-09-01T04:26:58;12.27;;;8.77;;
66118;SDS011;52912;48.564;9.302;2022-09-01T04:29:25;15.30;;;10.20;;
66118;SDS011;52912;48.564;9.302;2022-09-01T04:31:51;12.23;;;10.00;;
66118;SDS011;52912;48.564;9.302;2022-09-01T04:34:17;14.98;;;8.85;;
66118;SDS011;52912;48.564;9.302;2022-09-01T04:36:44;11.18;;;8.48;;
66118;SDS011;52912;48.564;9.302;2022-09-01T04:39:09;14.77;;;10.48;;
66118;SDS011;52912;48.564;9.302;2022-09-01T04:41:36;14.25;;;11.20;;
66118;SDS011;52912;48.564;9.302;2022-09-01T04:44:04;16.65;;;11.93;;
66118;SDS011;52912;48.564;9.302;2022-09-01T04:46:31;14.18;;;10.75;;
66118;SDS011;52912;48.564;9.302;2022-09-01T04:48:58;14.88;;;11.18;;
66118;SDS011;52912;48.564;9.302;2022-09-01T04:51:24;17.48;;;11.25;;
66118;SDS011;52912;48.564;9.302;2022-09-01T04:53:50;14.85;;;12.18;;
66118;SDS011;52912;48.564;9.302;2022-09-01T04:56:16;16.48;;;11.77;;
66118;SDS011;52912;48.564;9.302;2022-09-01T04:58:43;15.93;;;12.18;;
66118;SDS011;52912;48.564;9.302;2022-09-01T05:01:12;16.92;;;13.23;;
66118;SDS011;52912;48.564;9.302;2022-09-01T05:03:39;16.42;;;12.48;;
66118;SDS011;52912;48.564;9.302;2022-09-01T05:06:04;15.55;;;12.10;;
66118;SDS011;52912;48.564;9.302;2022-09-01T05:08:38;17.33;;;11.75;;
66118;SDS011;52912;48.564;9.302;2022-09-01T05:11:04;15.55;;;11.07;;
66118;SDS011;52912;48.564;9.302;2022-09-01T05:13:30;16.20;;;12.18;;
66118;SDS011;52912;48.564;9.302;2022-09-01T05:15:59;14.25;;;11.52;;
66118;SDS011;52912;48.564;9.302;2022-09-01T05:18:27;17.00;;;11.50;;
66118;SDS011;52912;48.564;9.302;2022-09-01T05:20:53;13.98;;;11.07;;
66118;SDS011;52912;48.564;9.302;2022-09-01T05:23:19;16.80;;;10.52;;
66118;SDS011;52912;48.564;9.302;2022-09-01T05:25:47;15.40;;;12.15;;
66118;SDS011;52912;48.564;9.302;2022-09-01T05:28:14;21.08;;;14.73;;
66118;SDS011;52912;48.564;9.302;2022-09-01T05:30:41;17.65;;;12.48;;
66118;SDS011;52912;48.564;9.302;2022-09-01T05:33:07;17.58;;;12.93;;
66118;SDS011;52912;48.564;9.302;2022-09-01T05:35:33;17.08;;;12.77;;
66118;SDS011;52912;48.564;9.302;2022-09-01T05:37:59;15.98;;;12.93;;
66118;SDS011;52912;48.564;9.302;2022-09-01T05:40:24;17.33;;;13.05;;
66118;SDS011;52912;48.564;9.302;2022-09-01T05:42:51;18.85;;;14.30;;
66118;SDS011;52912;48.564;9.302;2022-09-01T05:45:17;16.90;;;13.50;;
66118;SDS011;52912;48.564;9.302;2022-09-01T05:47:42;15.90;;;12.38;;
66118;SDS011;52912;48.564;9.302;2022-09-01T05:50:08;18.30;;;12.80;;
66118;SDS011;52912;48.564;9.302;2022-09-01T05:52:35;18.05;;;12.75;;
66118;SDS011;52912;48.564;9.302;2022-09-01T05:55:02;15.65;;;10.95;;
66118;SDS011;52912;48.564;9.302;2022-09-01T05:57:29;16.67;;;11.10;;
66118;SDS011;52912;48.564;9.302;2022-09-01T05:59:56;16.67;;;13.40;;
66118;SDS011;52912;48.564;9.302;2022-09-01T06:02:22;19.42;;;14.18;;
66118;SDS011;52912;48.564;9.302;2022-09-01T06:04:48;19.40;;;14.73;;
66118;SDS011;52912;48.564;9.302;2022-09-01T06:07:14;20.27;;;14.85;;
66118;SDS011;52912;48.564;9.302;2022-09-01T06:09:41;19.30;;;14.27;;
66118;SDS011;52912;48.564;9.302;2022-09-01T06:12:09;21.67;;;14.07;;
66118;SDS011;52912;48.564;9.302;2022-09-01T06:14:35;17.55;;;14.30;;
66118;SDS011;52912;48.564;9.302;2022-09-01T06:17:02;16.75;;;13.23;;
66118;SDS011;52912;48.564;9.302;2022-09-01T06:19:27;19.08;;;13.45;;
66118;SDS011;52912;48.564;9.302;2022-09-01T06:21:53;19.52;;;13.63;;
66118;SDS011;52912;48.564;9.302;2022-09-01T06:24:19;17.50;;;12.90;;
66118;SDS011;52912;48.564;9.302;2022-09-01T06:26:44;17.13;;;13.38;;
66118;SDS011;52912;48.564;9.302;2022-09-01T06:29:10;20.20;;;14.32;;
66118;SDS011;52912;48.564;9.302;2022-09-01T06:31:36;21.02;;;12.95;;
66118;SDS011;52912;48.564;9.302;2022-09-01T06:34:03;17.38;;;12.88;;
66118;SDS011;52912;48.564;9.302;2022-09-01T06:36:31;25.50;;;13.90;;
66118;SDS011;52912;48.564;9.302;2022-09-01T06:38:59;17.50;;;13.32;;
66118;SDS011;52912;48.564;9.302;2022-09-01T06:41:24;20.58;;;13.00;;
66118;SDS011;52912;48.564;9.302;2022-09-01T06:43:50;19.85;;;12.70;;
66118;SDS011;52912;48.564;9.302;2022-09-01T06:46:15;18.63;;;12.63;;
66118;SDS011;52912;48.564;9.302;2022-09-01T06:48:41;15.85;;;9.88;;
66118;SDS011;52912;48.564;9.302;2022-09-01T06:51:09;15.00;;;9.90;;
66118;SDS011;52912;48.564;9.302;2022-09-01T06:53:34;14.70;;;10.70;;
66118;SDS011;52912;48.564;9.302;2022-09-01T06:56:00;13.52;;;10.38;;
66118;SDS011;52912;48.564;9.302;2022-09-01T06:58:26;12.98;;;10.30;;
66118;SDS011;52912;48.564;9.302;2022-09-01T07:00:51;14.90;;;10.35;;
66118;SDS011;52912;48.564;9.302;2022-09-01T07:03:17;14.55;;;11.38;;
66118;SDS011;52912;48.564;9.302;2022-09-01T07:05:43;16.52;;;11.68;;
66118;SDS011;52912;48.564;9.302;2022-09-01T07:08:13;21.52;;;12.85;;
66118;SDS011;52912;48.564;9.302;2022-09-01T07:10:41;19.25;;;12.20;;
66118;SDS011;52912;48.564;9.302;2022-09-01T07:13:08;18.05;;;11.88;;
66118;SDS011;52912;48.564;9.302;2022-09-01T07:15:36;24.70;;;12.43;;
66118;SDS011;52912;48.564;9.302;2022-09-01T07:18:03;18.42;;;12.85;;
66118;SDS011;52912;48.564;9.302;2022-09-01T07:20:28;23.45;;;13.23;;
66118;SDS011;52912;48.564;9.302;2022-09-01T07:22:54;17.05;;;12.18;;
66118;SDS011;52912;48.564;9.302;2022-09-01T07:25:22;29.83;;;12.52;;
66118;SDS011;52912;48.564;9.302;2022-09-01T07:27:47;37.78;;;13.65;;
66118;SDS011;52912;48.564;9.302;2022-09-01T07:30:13;58.40;;;15.38;;
66118;SDS011;52912;48.564;9.302;2022-09-01T07:32:39;17.77;;;12.48;;
66118;SDS011;52912;48.564;9.302;2022-09-01T07:35:05;16.15;;;11.43;;
66118;SDS011;52912;48.564;9.302;2022-09-01T07:37:31;16.00;;;11.95;;
66118;SDS011;52912;48.564;9.302;2022-09-01T07:39:56;14.98;;;11.60;;
66118;SDS011;52912;48.564;9.302;2022-09-01T07:42:23;19.15;;;11.48;;
66118;SDS011;52912;48.564;9.302;2022-09-01T07:44:49;16.95;;;12.40;;
66118;SDS011;52912;48.564;9.302;2022-09-01T07:47:15;14.80;;;11.40;;
66118;SDS011;52912;48.564;9.302;2022-09-01T07:49:41;19.67;;;11.55;;
66118;SDS011;52912;48.564;9.302;2022-09-01T07:52:06;16.17;;;11.18;;
66118;SDS011;52912;48.564;9.302;2022-09-01T07:54:32;57.55;;;13.95;;
66118;SDS011;52912;48.564;9.302;2022-09-01T07:56:58;48.30;;;14.25;;
66118;SDS011;52912;48.564;9.302;2022-09-01T07:59:24;17.58;;;11.35;;
66118;SDS011;52912;48.564;9.302;2022-09-01T08:01:50;13.18;;;9.75;;
66118;SDS011;52912;48.564;9.302;2022-09-01T08:04:15;12.35;;;9.48;;
66118;SDS011;52912;48.564;9.302;2022-09-01T08:06:41;32.92;;;11.93;;
66118;SDS011;52912;48.564;9.302;2022-09-01T08:09:06;15.93;;;10.68;;
66118;SDS011;52912;48.564;9.302;2022-09-01T08:11:32;15.80;;;10.30;;
66118;SDS011;52912;48.564;9.302;2022-09-01T08:13:58;17.45;;;10.80;;
66118;SDS011;52912;48.564;9.302;2022-09-01T08:16:25;140.55;;;19.60;;
66118;SDS011;52912;48.564;9.302;2022-09-01T08:18:51;17.50;;;11.13;;
66118;SDS011;52912;48.564;9.302;2022-09-01T08:21:18;14.27;;;9.95;;
66118;SDS011;52912;48.564;9.302;2022-09-01T08:23:44;13.10;;;9.82;;
66118;SDS011;52912;48.564;9.302;2022-09-01T08:26:11;33.30;;;12.20;;
66118;SDS011;52912;48.564;9.302;2022-09-01T08:28:37;12.90;;;9.93;;
66118;SDS011;52912;48.564;9.302;2022-09-01T08:31:05;11.95;;;8.07;;
66118;SDS011;52912;48.564;9.302;2022-09-01T08:33:33;13.57;;;7.90;;
66118;SDS011;52912;48.564;9.302;2022-09-01T08:35:58;9.27;;;7.70;;
66118;SDS011;52912;48.564;9.302;2022-09-01T08:38:24;9.32;;;7.38;;
66118;SDS011;52912;48.564;9.302;2022-09-01T08:40:50;10.75;;;6.93;;
66118;SDS011;52912;48.564;9.302;2022-09-01T08:43:19;22.20;;;8.82;;
66118;SDS011;52912;48.564;9.302;2022-09-01T08:45:56;8.65;;;5.63;;
66118;SDS011;52912;48.564;9.302;2022-09-01T08:48:26;6.97;;;4.50;;
66118;SDS011;52912;48.564;9.302;2022-09-01T08:50:58;6.57;;;4.47;;
66118;SDS011;52912;48.564;9.302;2022-09-01T08:53:30;5.90;;;4.50;;
66118;SDS011;52912;48.564;9.302;2022-09-01T08:55:59;5.20;;;3.80;;
66118;SDS011;52912;48.564;9.302;2022-09-01T08:58:26;6.40;;;3.45;;
66118;SDS011;52912;48.564;9.302;2022-09-01T09:00:55;5.07;;;3.35;;
66118;SDS011;52912;48.564;9.302;2022-09-01T09:06:01;25.55;;;4.82;;
66118;SDS011;52912;48.564;9.302;2022-09-01T09:08:44;6.30;;;3.60;;
66118;SDS011;52912;48.564;9.302;2022-09-01T09:11:20;5.75;;;3.38;;
66118;SDS011;52912;48.564;9.302;2022-09-01T09:14:03;4.30;;;3.42;;
66118;SDS011;52912;48.564;9.302;2022-09-01T09:16:36;5.88;;;3.50;;
66118;SDS011;52912;48.564;9.302;2022-09-01T09:19:06;7.43;;;3.42;;
66118;SDS011;52912;48.564;9.302;2022-09-01T09:21:37;6.35;;;3.42;;
66118;SDS011;52912;48.564;9.302;2022-09-01T09:24:07;5.65;;;3.58;;
66118;SDS011;52912;48.564;9.302;2022-09-01T09:26:37;4.22;;;3.42;;
66118;SDS011;52912;48.564;9.302;2022-09-01T09:29:03;4.55;;;3.17;;
66118;SDS011;52912;48.564;9.302;2022-09-01T09:31:29;5.63;;;3.33;;
66118;SDS011;52912;48.564;9.302;2022-09-01T09:33:56;4.45;;;3.22;;
66118;SDS011;52912;48.564;9.302;2022-09-01T09:36:23;3.97;;;3.00;;
66118;SDS011;52912;48.564;9.302;2022-09-01T09:39:07;4.68;;;3.40;;
66118;SDS011;52912;48.564;9.302;2022-09-01T09:41:34;5.35;;;3.28;;
66118;SDS011;52912;48.564;9.302;2022-09-01T09:44:02;6.13;;;3.30;;
66118;SDS011;52912;48.564;9.302;2022-09-01T09:46:33;4.70;;;3.30;;
66118;SDS011;52912;48.564;9.302;2022-09-01T09:49:14;4.90;;;3.20;;
66118;SDS011;52912;48.564;9.302;2022-09-01T09:51:43;4.10;;;2.85;;
66118;SDS011;52912;48.564;9.302;2022-09-01T09:54:13;5.60;;;3.10;;
66118;SDS011;52912;48.564;9.302;2022-09-01T09:56:42;6.00;;;3.13;;
66118;SDS011;52912;48.564;9.302;2022-09-01T09:59:15;4.20;;;3.10;;
66118;SDS011;52912;48.564;9.302;2022-09-01T10:01:43;8.85;;;4.03;;
66118;SDS011;52912;48.564;9.302;2022-09-01T10:04:08;4.28;;;3.10;;
66118;SDS011;52912;48.564;9.302;2022-09-01T10:06:39;4.72;;;3.40;;
66118;SDS011;52912;48.564;9.302;2022-09-01T10:09:06;5.00;;;3.22;;
66118;SDS011;52912;48.564;9.302;2022-09-01T10:11:36;5.43;;;3.22;;
66118;SDS011;52912;48.564;9.302;2022-09-01T10:14:06;4.80;;;3.65;;
66118;SDS011;52912;48.564;9.302;2022-09-01T10:16:37;4.80;;;3.50;;
66118;SDS011;52912;48.564;9.302;2022-09-01T10:19:04;5.50;;;3.47;;
66118;SDS011;52912;48.564;9.302;2022-09-01T10:21:36;10.55;;;4.72;;
66118;SDS011;52912;48.564;9.302;2022-09-01T10:24:03;4.85;;;3.38;;
66118;SDS011;52912;48.564;9.302;2022-09-01T10:26:37;4.15;;;3.10;;
66118;SDS011;52912;48.564;9.302;2022-09-01T10:29:06;4.45;;;3.25;;
66118;SDS011;52912;48.564;9.302;2022-09-01T10:31:37;5.40;;;3.00;;
66118;SDS011;52912;48.564;9.302;2022-09-01T10:34:04;4.30;;;3.20;;
66118;SDS011;52912;48.564;9.302;2022-09-01T10:36:31;5.95;;;3.00;;
66118;SDS011;52912;48.564;9.302;2022-09-01T10:38:58;4.40;;;2.78;;
66118;SDS011;52912;48.564;9.302;2022-09-01T10:41:44;5.10;;;3.10;;
66118;SDS011;52912;48.564;9.302;2022-09-01T10:44:16;4.50;;;3.00;;
66118;SDS011;52912;48.564;9.302;2022-09-01T10:46:43;7.63;;;3.20;;
66118;SDS011;52912;48.564;9.302;2022-09-01T10:55:13;4.57;;;2.95;;
66118;SDS011;52912;48.564;9.302;2022-09-01T10:57:45;5.80;;;3.05;;
66118;SDS011;52912;48.564;9.302;2022-09-01T11:06:51;4.47;;;3.00;;
66118;SDS011;52912;48.564;9.302;2022-09-01T11:09:23;4.63;;;2.95;;
66118;SDS011;52912;48.564;9.302;2022-09-01T11:12:04;3.97;;;2.90;;
66118;SDS011;52912;48.564;9.302;2022-09-01T11:14:50;4.40;;;2.85;;
66118;SDS011;52912;48.564;9.302;2022-09-01T11:17:19;3.22;;;2.60;;
66118;SDS011;52912;48.564;9.302;2022-09-01T11:19:53;3.50;;;2.78;;
66118;SDS011;52912;48.564;9.302;2022-09-01T11:22:25;3.63;;;2.80;;
66118;SDS011;52912;48.564;9.302;2022-09-01T11:28:02;4.33;;;2.87;;
66118;SDS011;52912;48.564;9.302;2022-09-01T11:30:36;3.55;;;2.80;;
66118;SDS011;52912;48.564;9.302;2022-09-01T11:33:12;5.25;;;2.75;;
66118;SDS011;52912;48.564;9.302;2022-09-01T11:35:56;4.05;;;2.83;;
66118;SDS011;52912;48.564;9.302;2022-09-01T11:38:24;4.38;;;2.80;;
66118;SDS011;52912;48.564;9.302;2022-09-01T11:40:53;3.65;;;2.70;;
66118;SDS011;52912;48.564;9.302;2022-09-01T11:43:20;9.25;;;3.35;;
66118;SDS011;52912;48.564;9.302;2022-09-01T11:45:52;4.03;;;2.80;;
66118;SDS011;52912;48.564;9.302;2022-09-01T11:48:37;4.40;;;3.03;;
66118;SDS011;52912;48.564;9.302;2022-09-01T11:51:03;5.40;;;3.30;;
66118;SDS011;52912;48.564;9.302;2022-09-01T11:53:30;4.32;;;2.90;;
66118;SDS011;52912;48.564;9.302;2022-09-01T11:56:10;4.20;;;3.00;;
66118;SDS011;52912;48.564;9.302;2022-09-01T11:58:37;4.85;;;2.80;;
66118;SDS011;52912;48.564;9.302;2022-09-01T12:01:15;4.05;;;2.85;;
66118;SDS011;52912;48.564;9.302;2022-09-01T12:03:42;3.47;;;2.75;;
66118;SDS011;52912;48.564;9.302;2022-09-01T12:06:09;5.00;;;2.80;;
66118;SDS011;52912;48.564;9.302;2022-09-01T12:08:37;4.80;;;2.90;;
66118;SDS011;52912;48.564;9.302;2022-09-01T12:13:31;5.05;;;3.00;;
66118;SDS011;52912;48.564;9.302;2022-09-01T12:15:58;22.55;;;4.57;;
66118;SDS011;52912;48.564;9.302;2022-09-01T12:18:27;5.30;;;2.83;;
66118;SDS011;52912;48.564;9.302;2022-09-01T12:20:54;4.72;;;3.00;;
66118;SDS011;52912;48.564;9.302;2022-09-01T12:23:23;4.88;;;2.70;;
66118;SDS011;52912;48.564;9.302;2022-09-01T12:25:49;3.65;;;2.55;;
66118;SDS011;52912;48.564;9.302;2022-09-01T12:28:15;4.25;;;2.90;;
66118;SDS011;52912;48.564;9.302;2022-09-01T12:30:41;3.55;;;2.30;;
66118;SDS011;52912;48.564;9.302;2022-09-01T12:33:08;3.95;;;2.90;;
66118;SDS011;52912;48.564;9.302;2022-09-01T12:35:37;4.00;;;2.80;;
66118;SDS011;52912;48.564;9.302;2022-09-01T12:40:50;2.77;;;2.40;;
66118;SDS011;52912;48.564;9.302;2022-09-01T12:43:30;3.15;;;2.50;;
66118;SDS011;52912;48.564;9.302;2022-09-01T12:45:58;3.78;;;2.70;;
66118;SDS011;52912;48.564;9.302;2022-09-01T12:48:24;5.95;;;3.08;;
66118;SDS011;52912;48.564;9.302;2022-09-01T12:50:52;3.80;;;2.80;;
66118;SDS011;52912;48.564;9.302;2022-09-01T12:53:20;4.05;;;2.90;;
66118;SDS011;52912;48.564;9.302;2022-09-01T12:58:43;6.18;;;2.85;;
66118;SDS011;52912;48.564;9.302;2022-09-01T13:01:22;41.55;;;5.78;;
66118;SDS011;52912;48.564;9.302;2022-09-01T13:06:39;4.97;;;2.80;;
66118;SDS011;52912;48.564;9.302;2022-09-01T13:09:05;4.85;;;2.90;;
66118;SDS011;52912;48.564;9.302;2022-09-01T13:11:30;4.47;;;2.97;;
66118;SDS011;52912;48.564;9.302;2022-09-01T13:13:56;457.88;;;38.25;;
66118;SDS011;52912;48.564;9.302;2022-09-01T13:16:21;4.63;;;2.63;;
66118;SDS011;52912;48.564;9.302;2022-09-01T13:18:47;7.88;;;2.90;;
66118;SDS011;52912;48.564;9.302;2022-09-01T13:21:12;3.33;;;2.63;;
66118;SDS011;52912;48.564;9.302;2022-09-01T13:23:40;4.43;;;2.50;;
66118;SDS011;52912;48.564;9.302;2022-09-01T13:26:06;2.90;;;2.50;;
66118;SDS011;52912;48.564;9.302;2022-09-01T13:28:31;41.15;;;5.35;;
66118;SDS011;52912;48.564;9.302;2022-09-01T13:30:57;2.95;;;2.60;;
66118;SDS011;52912;48.564;9.302;2022-09-01T13:33:25;3.60;;;2.73;;
66118;SDS011;52912;48.564;9.302;2022-09-01T13:35:50;3.08;;;2.55;;
66118;SDS011;52912;48.564;9.302;2022-09-01T13:38:16;4.32;;;2.80;;
66118;SDS011;52912;48.564;9.302;2022-09-01T13:40:43;4.07;;;2.40;;
66118;SDS011;52912;48.564;9.302;2022-09-01T13:43:10;4.35;;;2.58;;
66118;SDS011;52912;48.564;9.302;2022-09-01T13:45:35;8.48;;;2.80;;
66118;SDS011;52912;48.564;9.302;2022-09-01T13:48:01;4.20;;;2.58;;
66118;SDS011;52912;48.564;9.302;2022-09-01T13:50:27;3.20;;;2.50;;
66118;SDS011;52912;48.564;9.302;2022-09-01T13:52:53;3.33;;;2.70;;
66118;SDS011;52912;48.564;9.302;2022-09-01T13:55:21;4.45;;;3.10;;
66118;SDS011;52912;48.564;9.302;2022-09-01T13:57:50;4.32;;;3.05;;
66118;SDS011;52912;48.564;9.302;2022-09-01T14:00:16;4.28;;;3.03;;
66118;SDS011;52912;48.564;9.302;2022-09-01T14:02:44;5.03;;;3.25;;
66118;SDS011;52912;48.564;9.302;2022-09-01T14:05:10;5.25;;;3.20;;
66118;SDS011;52912;48.564;9.302;2022-09-01T14:07:35;4.70;;;3.20;;
66118;SDS011;52912;48.564;9.302;2022-09-01T14:10:01;6.05;;;3.20;;
66118;SDS011;52912;48.564;9.302;2022-09-01T14:12:27;3.95;;;3.00;;
66118;SDS011;52912;48.564;9.302;2022-09-01T14:14:53;9.43;;;3.58;;
66118;SDS011;52912;48.564;9.302;2022-09-01T14:17:19;5.88;;;3.22;;
66118;SDS011;52912;48.564;9.302;2022-09-01T14:19:48;4.72;;;3.35;;
66118;SDS011;52912;48.564;9.302;2022-09-01T14:22:13;5.13;;;3.42;;
66118;SDS011;52912;48.564;9.302;2022-09-01T14:24:39;4.28;;;3.35;;
66118;SDS011;52912;48.564;9.302;2022-09-01T14:27:04;5.53;;;3.60;;
66118;SDS011;52912;48.564;9.302;2022-09-01T14:29:30;5.60;;;3.28;;
66118;SDS011;52912;48.564;9.302;2022-09-01T14:31:57;4.43;;;2.90;;
66118;SDS011;52912;48.564;9.302;2022-09-01T14:34:22;4.65;;;2.92;;
66118;SDS011;52912;48.564;9.302;2022-09-01T14:36:48;6.20;;;3.00;;
66118;SDS011;52912;48.564;9.302;2022-09-01T14:39:13;4.40;;;2.75;;
66118;SDS011;52912;48.564;9.302;2022-09-01T14:41:39;4.47;;;2.92;;
66118;SDS011;52912;48.564;9.302;2022-09-01T14:44:04;4.97;;;2.78;;
66118;SDS011;52912;48.564;9.302;2022-09-01T14:46:30;3.97;;;2.80;;
66118;SDS011;52912;48.564;9.302;2022-09-01T14:48:57;3.78;;;2.60;;
66118;SDS011;52912;48.564;9.302;2022-09-01T14:51:23;4.10;;;2.78;;
66118;SDS011;52912;48.564;9.302;2022-09-01T14:53:51;4.82;;;2.70;;
66118;SDS011;52912;48.564;9.302;2022-09-01T14:56:17;3.58;;;2.55;;
66118;SDS011;52912;48.564;9.302;2022-09-01T14:58:43;4.38;;;2.80;;
66118;SDS011;52912;48.564;9.302;2022-09-01T15:01:09;8.23;;;3.22;;
66118;SDS011;52912;48.564;9.302;2022-09-01T15:03:34;4.35;;;2.95;;
66118;SDS011;52912;48.564;9.302;2022-09-01T15:06:04;3.05;;;2.45;;
66118;SDS011;52912;48.564;9.302;2022-09-01T15:08:29;3.10;;;2.40;;